Purcellville, Virginia
Current Conditions -  °F | °C
As of 11:35 AM on Wednesday 26 Nov 2014 (Local Time) from KJYO Reporting Station
Light Snow Light Snow  
Wind Chill: 27°   Ceiling: 300
Heat Index: 34°   Visibility: 1mi
Dew Point: 34°   Wind: 8mph
Humidity: 100%   Direction: 20°NNE
Pressure: 30.01"   Gusts: NA
Location:  39.14°N, 77.71°W
Report Text: KJYO 261635Z AUTO 02007KT 1SM -SN OVC003 01/01 A3001 RMK AO2
Loading
Personal Weather Stations






























Interactive Weather Map New forecast layout! Learn more

10-Day Weather Forecast

Advertisements
Track Severe Weather on mobile